MSN weather

Dane County Regional Truax Field
Madison, Wisconsin, United States

Public forecast

Using degrees Fahrenheit for public forecast. Weather courtesy of forecast.io.

METAR (pilot weather report)

Retrieved 2019/05/23 10:53 UTC (23 minutes ago):

KMSN 231053Z 24004KT 10SM SCT250 13/08 A2990 RMK AO2 SLP123 T01330078

TAF (pilot weather forecast)

Retrieved 2019/05/23 06:36 UTC (5 hours ago):

TAF KMSN 230533Z 2306/2406 23006KT P6SM SCT100 FM231400 27012G21KT P6SM FEW150 FM232300 31008KT P6SM FEW150